Time;durP1;ratioP1;P1;durP2;ratioP2;P2;SDS_P1;SDS_P2;PMS_P1;PMS_P2;Temp;Humidity;BMP_temperature;BMP_pressure;BME280_temperature;BME280_humidity;BME280_pressure;Samples;Min_cycle;Max_cycle;Signal;HPM_P1;HPM_P2
2022/10/11 00:00:10;;;;;;;;;;;;;;;29.52;29.71;101646.44;5069901;28;1218;-38
2022/10/11 00:02:35;;;;;;;;;;;;;;;29.52;29.77;101650.00;5056899;28;1218;-39
2022/10/11 00:05:01;;;;;;;;;;;;;;;29.50;29.69;101648.47;5056188;28;1117;-40
2022/10/11 00:07:26;;;;;;;;;;;;;;;29.48;29.75;101656.78;5056074;28;1140;-38
2022/10/11 00:09:51;;;;;;;;;;;;;;;29.45;29.69;101646.31;5038613;28;1180;-38
2022/10/11 00:12:17;;;;;;;;;;;;;;;29.37;29.78;101643.63;5056000;28;1244;-40
2022/10/11 00:14:42;;;;;;;;;;;;;;;29.34;29.97;101642.97;5056624;28;1901;-39
2022/10/11 00:17:07;;;;;;;;;;;;;;;29.24;30.13;101639.66;5055919;28;1116;-38
2022/10/11 00:19:33;;;;;;;;;;;;;;;29.25;30.03;101643.19;5055927;28;1132;-39
2022/10/11 00:21:58;;;;;;;;;;;;;;;29.20;30.09;101631.03;5055914;28;1191;-43
2022/10/11 00:24:23;;;;;;;;;;;;;;;29.24;29.87;101636.09;5056074;28;1136;-39
2022/10/11 00:26:49;;;;;;;;;;;;;;;29.20;30.18;101631.03;5056034;28;1187;-40
2022/10/11 00:29:14;;;;;;;;;;;;;;;29.14;30.15;101634.44;5056244;28;1112;-41
2022/10/11 00:31:39;;;;;;;;;;;;;;;29.11;30.08;101632.09;5055491;28;1123;-38
2022/10/11 00:34:05;;;;;;;;;;;;;;;29.15;30.18;101628.00;5057281;28;1960;-40
2022/10/11 00:36:30;;;;;;;;;;;;;;;29.17;30.08;101627.81;5069774;28;1135;-40
2022/10/11 00:38:55;;;;;;;;;;;;;;;29.09;30.24;101623.28;5056206;28;1163;-39
2022/10/11 00:41:20;;;;;;;;;;;;;;;29.03;30.20;101624.81;5055386;28;1156;-38
2022/10/11 00:43:46;;;;;;;;;;;;;;;29.14;30.18;101625.47;5055619;28;1191;-38
2022/10/11 00:46:17;;;;;;;;;;;;;;;29.04;30.09;101618.41;5055576;28;1255;-39
2022/10/11 00:48:50;;;;;;;;;;;;;;;28.90;30.27;101619.91;5062210;28;1112;-38
2022/10/11 00:51:16;;;;;;;;;;;;;;;28.95;30.17;101622.09;5040491;28;1156;-38
2022/10/11 00:53:42;;;;;;;;;;;;;;;28.99;30.45;101618.06;5047524;28;1889;-39
2022/10/11 00:56:19;;;;;;;;;;;;;;;29.01;30.15;101618.72;5075623;28;1182;-39
2022/10/11 00:58:44;;;;;;;;;;;;;;;28.90;30.32;101613.66;5052853;28;1119;-40
2022/10/11 01:01:09;;;;;;;;;;;;;;;28.82;30.65;101611.81;5039179;28;1172;-39
2022/10/11 01:03:35;;;;;;;;;;;;;;;28.80;30.49;101611.16;5072267;28;1045;-39
2022/10/11 01:06:02;;;;;;;;;;;;;;;28.84;30.33;101607.91;5058020;28;1155;-38
2022/10/11 01:08:27;;;;;;;;;;;;;;;28.86;30.35;101605.06;5075811;28;1155;-40
2022/10/11 01:10:53;;;;;;;;;;;;;;;28.92;30.30;101603.50;5057349;28;941;-41
2022/10/11 01:13:27;;;;;;;;;;;;;;;28.82;30.41;101591.03;5047209;28;1175;-40
2022/10/11 01:16:13;;;;;;;;;;;;;;;28.83;30.25;101586.41;5055832;28;1983;-40
2022/10/11 01:18:48;;;;;;;;;;;;;;;28.90;30.15;101583.88;5037728;28;1155;-39
2022/10/11 01:21:14;;;;;;;;;;;;;;;28.82;30.42;101579.34;5037624;28;1223;-39
2022/10/11 01:23:39;;;;;;;;;;;;;;;28.73;30.32;101579.34;5055836;28;1124;-39
2022/10/11 01:26:10;;;;;;;;;;;;;;;28.75;30.58;101578.31;5055293;28;938;-39
2022/10/11 01:28:39;;;;;;;;;;;;;;;28.74;30.43;101577.50;5057650;28;1135;-39
2022/10/11 01:31:16;;;;;;;;;;;;;;;28.73;30.42;101575.78;5059443;28;1151;-39
2022/10/11 01:33:44;;;;;;;;;;;;;;;28.69;30.68;101582.59;5040989;28;1902;-38
2022/10/11 01:36:11;;;;;;;;;;;;;;;28.76;30.30;101574.63;5041467;28;1136;-39
2022/10/11 01:38:38;;;;;;;;;;;;;;;28.76;29.95;101572.72;5058949;28;1036;-39
2022/10/11 01:41:05;;;;;;;;;;;;;;;28.73;30.42;101573.94;5059033;28;1167;-38
2022/10/11 01:43:30;;;;;;;;;;;;;;;28.70;30.38;101584.28;5041172;28;1148;-39
2022/10/11 01:45:56;;;;;;;;;;;;;;;28.60;30.66;101568.22;5040923;28;1156;-38
2022/10/11 01:48:21;;;;;;;;;;;;;;;28.58;30.58;101571.09;5058491;28;1135;-39
2022/10/11 01:50:54;;;;;;;;;;;;;;;28.56;30.51;101572.31;5065095;28;1028;-40
2022/10/11 01:53:22;;;;;;;;;;;;;;;28.58;30.27;101570.25;5058577;28;1104;-38
2022/10/11 01:55:53;;;;;;;;;;;;;;;28.52;30.74;101566.41;5058305;28;2042;-40
2022/10/11 01:58:18;;;;;;;;;;;;;;;28.49;30.59;101569.44;5042762;28;1128;-39
2022/10/11 02:00:49;;;;;;;;;;;;;;;28.57;30.42;101571.28;5078160;28;1344;-38
2022/10/11 02:03:29;;;;;;;;;;;;;;;28.52;30.46;101577.22;5064640;28;1128;-38
2022/10/11 02:06:15;;;;;;;;;;;;;;;28.48;30.68;101575.84;5040793;28;1108;-39
2022/10/11 02:08:53;;;;;;;;;;;;;;;28.39;30.80;101575.06;5057899;28;1433;-40
2022/10/11 02:11:25;;;;;;;;;;;;;;;28.44;30.40;101575.38;5058296;28;1139;-39
2022/10/11 02:13:53;;;;;;;;;;;;;;;28.42;30.36;101572.00;5040348;28;1898;-40
2022/10/11 02:16:19;;;;;;;;;;;;;;;28.38;30.71;101573.34;5040351;28;1482;-38
2022/10/11 02:18:46;;;;;;;;;;;;;;;28.40;30.71;101575.88;5040592;28;1140;-39
2022/10/11 02:21:11;;;;;;;;;;;;;;;28.43;30.43;101575.53;5040628;28;1223;-38
2022/10/11 02:23:41;;;;;;;;;;;;;;;28.43;30.63;101570.13;5040292;28;1207;-39
2022/10/11 02:26:06;;;;;;;;;;;;;;;28.46;30.63;101573.31;5039743;28;914;-40
2022/10/11 02:28:33;;;;;;;;;;;;;;;28.36;30.52;101567.28;5040333;28;1148;-39
2022/10/11 02:30:59;;;;;;;;;;;;;;;28.32;30.78;101561.31;5040449;28;1128;-39
2022/10/11 02:33:30;;;;;;;;;;;;;;;28.37;30.61;101566.25;5040355;28;1108;-39
2022/10/11 02:36:00;;;;;;;;;;;;;;;28.37;30.96;101563.53;5057590;28;1905;-39
2022/10/11 02:38:27;;;;;;;;;;;;;;;28.37;30.73;101563.53;5039931;28;892;-39
2022/10/11 02:40:54;;;;;;;;;;;;;;;28.38;30.95;101561.69;5039162;28;1108;-39
2022/10/11 02:43:34;;;;;;;;;;;;;;;28.34;30.45;101562.00;5039989;28;1203;-39
2022/10/11 02:46:00;;;;;;;;;;;;;;;28.30;30.76;101562.50;5040178;28;1128;-38
2022/10/11 02:48:27;;;;;;;;;;;;;;;28.37;30.81;101563.53;5057821;28;1144;-38
2022/10/11 02:50:52;;;;;;;;;;;;;;;28.31;30.87;101562.31;5039993;28;1179;-38
2022/10/11 02:53:18;;;;;;;;;;;;;;;28.34;30.84;101563.91;5057824;28;1132;-39
2022/10/11 02:55:43;;;;;;;;;;;;;;;28.30;30.79;101554.38;5057241;28;1985;-38
2022/10/11 02:58:08;;;;;;;;;;;;;;;28.31;30.59;101556.91;5073803;28;1392;-40
2022/10/11 03:00:34;;;;;;;;;;;;;;;28.26;30.34;101556.59;5071553;28;1067;-38
2022/10/11 03:02:59;;;;;;;;;;;;;;;28.14;31.58;101557.97;5057194;28;933;-39
2022/10/11 03:05:24;;;;;;;;;;;;;;;27.87;32.78;101559.00;5057260;28;1171;-43
2022/10/11 03:07:49;;;;;;;;;;;;;;;27.68;32.15;101554.75;5058070;28;1057;-44
2022/10/11 03:10:15;;;;;;;;;;;;;;;27.50;32.22;101553.00;5060214;28;1178;-41
2022/10/11 03:12:40;;;;;;;;;;;;;;;27.39;32.43;101547.94;5056743;28;1183;-41
2022/10/11 03:15:06;;;;;;;;;;;;;;;27.31;31.96;101554.13;5059192;28;1973;-41
2022/10/11 03:17:31;;;;;;;;;;;;;;;27.22;31.74;101542.47;5059333;28;1917;-42
2022/10/11 03:19:56;;;;;;;;;;;;;;;27.02;31.25;101545.47;5056546;28;1478;-44
2022/10/11 03:22:22;;;;;;;;;;;;;;;27.06;31.60;101547.81;5056869;28;1297;-45
2022/10/11 03:24:47;;;;;;;;;;;;;;;26.95;31.21;101540.81;5056419;28;1305;-44
2022/10/11 03:27:12;;;;;;;;;;;;;;;26.86;31.31;101548.06;5060341;28;1208;-44
2022/10/11 03:29:37;;;;;;;;;;;;;;;26.93;30.97;101545.53;5056394;28;1192;-44
2022/10/11 03:32:03;;;;;;;;;;;;;;;26.94;31.08;101542.69;5056177;28;1194;-45
2022/10/11 03:34:28;;;;;;;;;;;;;;;26.84;30.81;101533.88;5055909;28;1957;-49
2022/10/11 03:36:53;;;;;;;;;;;;;;;26.81;31.07;101537.72;5056416;28;1451;-42
2022/10/11 03:39:21;;;;;;;;;;;;;;;26.92;31.23;101539.31;5056026;28;1000;-43
2022/10/11 03:41:46;;;;;;;;;;;;;;;26.97;32.01;101539.66;5056243;28;1147;-41
2022/10/11 03:44:11;;;;;;;;;;;;;;;26.90;31.50;101534.06;5056198;28;1120;-41
2022/10/11 03:46:36;;;;;;;;;;;;;;;26.85;30.59;101535.56;5058842;28;1936;-40
2022/10/11 03:49:02;;;;;;;;;;;;;;;26.00;30.54;101529.78;5063972;28;1127;-39
2022/10/11 03:51:27;;;;;;;;;;;;;;;25.30;30.34;101537.53;5055017;28;1167;-40
2022/10/11 03:53:52;;;;;;;;;;;;;;;25.62;29.84;101530.78;5056175;28;1898;-39
2022/10/11 03:56:18;;;;;;;;;;;;;;;25.69;29.95;101525.66;5056163;28;1132;-43
2022/10/11 03:58:43;;;;;;;;;;;;;;;25.90;30.06;101525.34;5060987;28;1148;-44
2022/10/11 04:01:08;;;;;;;;;;;;;;;26.00;30.02;101521.69;5076052;28;1158;-41
2022/10/11 04:03:34;;;;;;;;;;;;;;;25.98;29.38;101526.38;5058361;28;875;-41
2022/10/11 04:05:59;;;;;;;;;;;;;;;25.95;28.99;101513.22;5055850;28;1143;-42
2022/10/11 04:08:24;;;;;;;;;;;;;;;25.86;29.20;101525.81;5055293;28;1325;-41
2022/10/11 04:10:49;;;;;;;;;;;;;;;25.74;29.58;101520.63;5056174;28;1085;-42
2022/10/11 04:13:15;;;;;;;;;;;;;;;25.78;29.16;101522.03;5056143;28;1151;-43
2022/10/11 04:15:40;;;;;;;;;;;;;;;26.16;29.76;101519.13;5073598;28;1969;-39
2022/10/11 04:18:05;;;;;;;;;;;;;;;26.44;29.24;101523.56;5061084;28;2673;-38
2022/10/11 04:20:31;;;;;;;;;;;;;;;26.57;29.09;101525.81;5055993;28;1218;-37
2022/10/11 04:22:56;;;;;;;;;;;;;;;26.51;28.66;101521.03;5055519;28;1171;-39
2022/10/11 04:25:22;;;;;;;;;;;;;;;26.59;28.29;101529.19;5056005;28;1163;-40
2022/10/11 04:27:47;;;;;;;;;;;;;;;26.50;28.87;101528.31;5075639;28;937;-42
2022/10/11 04:30:12;;;;;;;;;;;;;;;26.58;28.90;101522.09;5063981;28;1127;-43
2022/10/11 04:32:38;;;;;;;;;;;;;;;26.48;29.18;101524.06;5055792;28;1144;-38
2022/10/11 04:35:03;;;;;;;;;;;;;;;26.69;28.74;101525.53;5055958;28;1890;-45
2022/10/11 04:37:28;;;;;;;;;;;;;;;26.58;28.87;101518.53;5071561;28;1234;-45
2022/10/11 04:39:54;;;;;;;;;;;;;;;26.57;28.60;101527.66;5075741;28;838;-44
2022/10/11 04:42:19;;;;;;;;;;;;;;;26.58;28.91;101522.09;5075528;28;1182;-43
2022/10/11 04:44:45;;;;;;;;;;;;;;;26.59;29.11;101523.78;5055928;28;1156;-44
2022/10/11 04:47:10;;;;;;;;;;;;;;;26.52;29.42;101522.75;5062497;28;2429;-43
2022/10/11 04:49:35;;;;;;;;;;;;;;;26.46;28.95;101529.63;5071467;28;1115;-42
2022/10/11 04:52:01;;;;;;;;;;;;;;;26.33;29.05;101526.50;5055318;28;895;-41
2022/10/11 04:54:26;;;;;;;;;;;;;;;26.46;28.85;101540.41;5055124;28;1963;-40
2022/10/11 04:56:51;;;;;;;;;;;;;;;26.67;28.96;101533.78;5062986;28;1156;-46
2022/10/11 04:59:17;;;;;;;;;;;;;;;26.80;29.07;101532.50;5075217;28;1190;-42
2022/10/11 05:01:42;;;;;;;;;;;;;;;26.74;29.01;101534.81;5074036;28;1167;-43
2022/10/11 05:04:07;;;;;;;;;;;;;;;26.70;28.98;101532.63;5077066;28;1044;-44
2022/10/11 05:06:32;;;;;;;;;;;;;;;26.76;29.18;101531.97;5066385;28;1245;-44
2022/10/11 05:08:59;;;;;;;;;;;;;;;26.71;29.37;101532.44;5073577;28;1152;-44
2022/10/11 05:11:24;;;;;;;;;;;;;;;26.76;29.37;101537.34;5059134;28;1119;-43
2022/10/11 05:13:50;;;;;;;;;;;;;;;26.78;29.42;101538.91;5059149;28;1901;-43
2022/10/11 05:16:15;;;;;;;;;;;;;;;26.82;29.51;101547.53;5078562;28;926;-45
2022/10/11 05:18:40;;;;;;;;;;;;;;;26.86;29.43;101546.19;5059972;28;2512;-42
2022/10/11 05:21:07;;;;;;;;;;;;;;;26.92;29.39;101544.69;5059512;28;1127;-45
2022/10/11 05:23:33;;;;;;;;;;;;;;;26.88;29.59;101543.31;5059523;28;1112;-42
2022/10/11 05:25:58;;;;;;;;;;;;;;;26.86;29.25;101545.34;5064119;28;1155;-46
2022/10/11 05:28:23;;;;;;;;;;;;;;;26.80;29.52;101549.53;5078612;28;973;-42
2022/10/11 05:30:49;;;;;;;;;;;;;;;26.81;29.45;101553.91;5075882;28;1253;-42
2022/10/11 05:33:14;;;;;;;;;;;;;;;26.73;29.58;101553.88;5059196;28;1092;-43
2022/10/11 05:35:39;;;;;;;;;;;;;;;26.82;29.92;101552.06;5059472;28;1902;-45
2022/10/11 05:38:05;;;;;;;;;;;;;;;26.89;30.19;101551.25;5073260;28;1119;-42
2022/10/11 05:40:30;;;;;;;;;;;;;;;26.88;30.54;101554.97;5070038;28;930;-37
2022/10/11 05:42:55;;;;;;;;;;;;;;;26.87;30.29;101557.84;5078007;28;995;-39
2022/10/11 05:45:21;;;;;;;;;;;;;;;26.81;30.63;101559.31;5058427;28;1136;-37
2022/10/11 05:47:46;;;;;;;;;;;;;;;26.85;30.41;101552.59;5060037;28;1804;-38
2022/10/11 05:50:11;;;;;;;;;;;;;;;26.85;30.51;101559.84;5058816;28;1219;-37
2022/10/11 05:52:36;;;;;;;;;;;;;;;26.88;30.69;101559.53;5078159;28;882;-42
2022/10/11 05:55:02;;;;;;;;;;;;;;;26.96;30.18;101562.25;5061685;28;1977;-39
2022/10/11 05:57:27;;;;;;;;;;;;;;;26.90;30.28;101561.06;5058648;28;1190;-39
2022/10/11 05:59:52;;;;;;;;;;;;;;;26.96;30.51;101559.56;5072934;28;1206;-39
2022/10/11 06:02:18;;;;;;;;;;;;;;;26.94;30.61;101571.53;5078213;28;1043;-39
2022/10/11 06:04:43;;;;;;;;;;;;;;;26.94;30.63;101568.84;5065968;28;1072;-37
2022/10/11 06:07:08;;;;;;;;;;;;;;;27.11;30.48;101567.09;5058571;28;1179;-37
2022/10/11 06:09:34;;;;;;;;;;;;;;;27.10;30.33;101570.78;5058579;28;1084;-37
2022/10/11 06:11:59;;;;;;;;;;;;;;;27.21;29.85;101569.66;5058038;28;1196;-38
2022/10/11 06:14:25;;;;;;;;;;;;;;;27.20;30.27;101568.81;5056899;28;1906;-37
2022/10/11 06:16:50;;;;;;;;;;;;;;;27.19;30.25;101564.41;5061771;28;2450;-35
2022/10/11 06:19:15;;;;;;;;;;;;;;;27.26;29.94;101569.97;5058098;28;1179;-35
2022/10/11 06:21:41;;;;;;;;;;;;;;;27.22;30.38;101571.34;5058131;28;1214;-35
2022/10/11 06:24:08;;;;;;;;;;;;;;;27.21;30.17;101570.47;5057963;28;1081;-36
2022/10/11 06:26:33;;;;;;;;;;;;;;;27.22;30.10;101569.50;5040089;28;1101;-36
2022/10/11 06:28:58;;;;;;;;;;;;;;;27.23;30.16;101567.63;5058205;28;1076;-35
2022/10/11 06:31:23;;;;;;;;;;;;;;;27.24;30.38;101572.84;5065731;28;1171;-37
2022/10/11 06:33:49;;;;;;;;;;;;;;;27.39;29.94;101569.53;5063875;28;1910;-36
2022/10/11 06:36:15;;;;;;;;;;;;;;;27.28;30.43;101567.16;5057521;28;1136;-35
2022/10/11 06:38:40;;;;;;;;;;;;;;;27.29;30.43;101572.38;5069345;28;1190;-34
2022/10/11 06:41:09;;;;;;;;;;;;;;;27.54;30.49;101574.28;5073426;28;1053;-38
2022/10/11 06:43:34;;;;;;;;;;;;;;;27.53;30.35;101573.44;5068950;28;1048;-38
2022/10/11 06:45:59;;;;;;;;;;;;;;;27.36;30.45;101577.97;5059576;28;1077;-37
2022/10/11 06:48:25;;;;;;;;;;;;;;;27.34;30.17;101586.22;5067595;28;2506;-38
2022/10/11 06:50:50;;;;;;;;;;;;;;;27.43;30.26;101583.53;5074061;28;1182;-37
2022/10/11 06:53:15;;;;;;;;;;;;;;;27.38;30.42;101593.00;5060334;28;1158;-37
2022/10/11 06:55:40;;;;;;;;;;;;;;;27.39;30.04;101583.03;5066587;28;1898;-39
2022/10/11 06:58:06;;;;;;;;;;;;;;;27.43;30.22;101584.41;5056671;28;1108;-38
2022/10/11 07:00:31;;;;;;;;;;;;;;;27.45;30.43;101587.78;5066499;28;1215;-37
2022/10/11 07:02:56;;;;;;;;;;;;;;;27.45;30.32;101581.53;5072855;28;904;-37
2022/10/11 07:05:22;;;;;;;;;;;;;;;27.57;30.17;101590.16;5056610;28;1124;-37
2022/10/11 07:07:47;;;;;;;;;;;;;;;27.57;30.58;101579.38;5057363;28;1135;-36
2022/10/11 07:10:12;;;;;;;;;;;;;;;27.57;30.60;101576.66;5056782;28;1120;-38
2022/10/11 07:12:38;;;;;;;;;;;;;;;27.59;30.46;101580.88;5057217;28;1159;-36
2022/10/11 07:15:03;;;;;;;;;;;;;;;27.72;30.38;101576.88;5056696;28;1972;-35
2022/10/11 07:17:28;;;;;;;;;;;;;;;27.69;30.08;101580.78;5056825;28;2472;-37
2022/10/11 07:19:54;;;;;;;;;;;;;;;27.70;30.26;101579.75;5056858;28;1218;-38
2022/10/11 07:22:19;;;;;;;;;;;;;;;27.68;29.96;101581.78;5059779;28;1163;-39
2022/10/11 07:24:44;;;;;;;;;;;;;;;27.87;29.83;101577.06;5058634;28;1183;-39
2022/10/11 07:27:10;;;;;;;;;;;;;;;28.18;29.58;101575.53;5057934;28;1092;-39
2022/10/11 07:29:35;;;;;;;;;;;;;;;28.14;29.24;101575.06;5076651;28;1163;-38
2022/10/11 07:32:00;;;;;;;;;;;;;;;27.89;28.70;101576.91;5076768;28;1523;-41
2022/10/11 07:34:26;;;;;;;;;;;;;;;27.36;28.27;101580.69;5062904;28;1951;-40
2022/10/11 07:36:51;;;;;;;;;;;;;;;27.14;28.66;101580.25;5056386;28;1135;-42
2022/10/11 07:39:16;;;;;;;;;;;;;;;27.08;27.97;101583.59;5057369;28;1100;-41
2022/10/11 07:41:41;;;;;;;;;;;;;;;27.24;28.10;101588.22;5070222;28;1139;-39
2022/10/11 07:44:07;;;;;;;;;;;;;;;27.53;29.60;101588.81;5056162;28;1159;-40
2022/10/11 07:46:32;;;;;;;;;;;;;;;27.66;28.88;101581.06;5058137;28;1854;-40
2022/10/11 07:48:58;;;;;;;;;;;;;;;27.80;29.47;101576.88;5076124;28;1209;-39
2022/10/11 07:51:23;;;;;;;;;;;;;;;27.86;29.97;101580.78;5061647;28;1127;-39
2022/10/11 07:53:49;;;;;;;;;;;;;;;27.81;29.35;101583.16;5076504;28;1957;-39
2022/10/11 07:56:16;;;;;;;;;;;;;;;27.87;29.33;101586.03;5062508;28;1135;-39
2022/10/11 07:58:41;;;;;;;;;;;;;;;27.89;29.66;101585.00;5056221;28;1132;-38
2022/10/11 08:01:07;;;;;;;;;;;;;;;27.75;29.51;101590.91;5056063;28;1143;-39
2022/10/11 08:03:32;;;;;;;;;;;;;;;27.43;27.00;101591.66;5055680;28;1128;-38
2022/10/11 08:05:58;;;;;;;;;;;;;;;27.24;27.27;101589.06;5055988;28;1135;-39
2022/10/11 08:08:23;;;;;;;;;;;;;;;27.50;26.80;101588.13;5056418;28;1096;-40
2022/10/11 08:10:49;;;;;;;;;;;;;;;27.91;28.41;101593.81;5055831;28;1152;-42
2022/10/11 08:13:14;;;;;;;;;;;;;;;27.82;28.46;101587.53;5055746;28;1261;-44
2022/10/11 08:15:39;;;;;;;;;;;;;;;27.74;29.28;101581.09;5058346;28;1906;-46
2022/10/11 08:18:05;;;;;;;;;;;;;;;27.80;29.33;101592.25;5061550;28;2508;-44
2022/10/11 08:20:31;;;;;;;;;;;;;;;27.97;29.25;101591.28;5055454;28;1140;-47
2022/10/11 08:22:57;;;;;;;;;;;;;;;28.16;28.81;101581.09;5056485;28;1159;-44
2022/10/11 08:25:22;;;;;;;;;;;;;;;28.11;29.07;101591.63;5055951;28;1120;-47
2022/10/11 08:27:47;;;;;;;;;;;;;;;28.09;28.77;101586.34;5055872;28;1226;-45
2022/10/11 08:30:13;;;;;;;;;;;;;;;28.11;28.90;101592.44;5055990;28;1155;-44
2022/10/11 08:32:38;;;;;;;;;;;;;;;28.17;28.93;101590.06;5069877;28;1120;-43
2022/10/11 08:35:03;;;;;;;;;;;;;;;28.13;28.12;101586.88;5061963;28;1902;-43
2022/10/11 08:37:29;;;;;;;;;;;;;;;28.27;28.35;101577.22;5069200;28;1207;-43
2022/10/11 08:39:54;;;;;;;;;;;;;;;28.34;28.59;101577.41;5060278;28;1108;-43
2022/10/11 08:42:37;;;;;;;;;;;;;;;28.34;28.29;101575.53;5075602;28;1154;-43
2022/10/11 08:45:04;;;;;;;;;;;;;;;28.33;28.24;101575.72;5053471;28;1104;-42
2022/10/11 08:47:35;;;;;;;;;;;;;;;28.32;28.30;101571.31;5043155;28;1774;-42
2022/10/11 08:50:00;;;;;;;;;;;;;;;28.33;28.95;101573.00;5054663;28;1176;-43
2022/10/11 08:52:26;;;;;;;;;;;;;;;28.33;28.48;101568.44;5039473;28;1172;-42
2022/10/11 08:54:56;;;;;;;;;;;;;;;28.33;28.23;101573.88;5037811;28;1972;-40
2022/10/11 08:57:22;;;;;;;;;;;;;;;28.46;28.07;101564.38;5038201;28;1168;-43
2022/10/11 08:59:57;;;;;;;;;;;;;;;28.45;27.95;101568.94;5037696;28;1135;-44
2022/10/11 09:02:29;;;;;;;;;;;;;;;28.53;28.00;101569.94;5038020;28;1109;-44
2022/10/11 09:04:55;;;;;;;;;;;;;;;28.51;28.05;101563.88;5055025;28;1123;-45
2022/10/11 09:07:23;;;;;;;;;;;;;;;28.47;28.09;101564.22;5055328;28;1140;-45
2022/10/11 09:10:00;;;;;;;;;;;;;;;28.39;28.09;101550.69;5067566;28;1116;-44
2022/10/11 09:12:35;;;;;;;;;;;;;;;28.43;28.19;101556.59;5037833;28;1302;-44
2022/10/11 09:15:00;;;;;;;;;;;;;;;28.46;28.19;101554.38;5055305;28;1914;-47
2022/10/11 09:17:41;;;;;;;;;;;;;;;28.54;28.28;101561.66;5063153;28;1855;-45
2022/10/11 09:20:18;;;;;;;;;;;;;;;28.50;27.88;101562.16;5055072;28;1179;-44
2022/10/11 09:22:52;;;;;;;;;;;;;;;28.49;27.85;101555.91;5055489;28;1069;-46
2022/10/11 09:25:20;;;;;;;;;;;;;;;28.54;27.65;101556.25;5055099;28;1147;-43
2022/10/11 09:27:49;;;;;;;;;;;;;;;28.68;27.89;101556.53;5037449;28;1010;-44
2022/10/11 09:30:15;;;;;;;;;;;;;;;28.80;27.66;101552.44;5073994;28;1007;-48
2022/10/11 09:32:41;;;;;;;;;;;;;;;28.88;27.54;101556.13;5056740;28;1230;-45
2022/10/11 09:35:14;;;;;;;;;;;;;;;28.79;27.49;101555.31;5065759;28;1961;-45
2022/10/11 09:37:52;;;;;;;;;;;;;;;28.87;27.31;101563.41;5072107;28;1210;-45
2022/10/11 09:40:17;;;;;;;;;;;;;;;28.81;27.04;101561.41;5048046;28;1109;-45
2022/10/11 09:42:42;;;;;;;;;;;;;;;28.89;26.80;101555.09;5071868;28;1123;-43
2022/10/11 09:45:16;;;;;;;;;;;;;;;28.90;26.98;101556.78;5055495;28;1128;-43
2022/10/11 09:47:41;;;;;;;;;;;;;;;28.91;27.07;101558.50;5037310;28;1902;-45
2022/10/11 09:50:14;;;;;;;;;;;;;;;28.94;27.04;101553.56;5055522;28;1116;-45
2022/10/11 09:52:52;;;;;;;;;;;;;;;29.06;26.93;101550.50;5040838;28;1164;-43
2022/10/11 09:55:36;;;;;;;;;;;;;;;29.12;27.05;101552.50;5058422;28;1964;-43
2022/10/11 09:58:02;;;;;;;;;;;;;;;29.07;26.92;101544.91;5058027;28;1068;-43
2022/10/11 10:00:29;;;;;;;;;;;;;;;29.07;27.16;101542.19;5058719;28;1159;-42
2022/10/11 10:02:57;;;;;;;;;;;;;;;29.09;26.98;101547.44;5040535;28;1223;-46
2022/10/11 10:05:29;;;;;;;;;;;;;;;29.29;26.87;101546.97;5069035;28;1156;-43
2022/10/11 10:08:02;;;;;;;;;;;;;;;29.27;26.79;101549.88;5076584;28;1190;-44
2022/10/11 10:10:28;;;;;;;;;;;;;;;29.25;26.86;101535.66;5058549;28;1174;-44
2022/10/11 10:12:55;;;;;;;;;;;;;;;28.96;26.68;101529.00;5058287;28;1312;-44
2022/10/11 10:15:20;;;;;;;;;;;;;;;29.12;26.88;101529.97;5046817;28;1984;-46
2022/10/11 10:17:49;;;;;;;;;;;;;;;29.21;26.70;101529.75;5047064;28;2191;-45
2022/10/11 10:20:21;;;;;;;;;;;;;;;29.31;26.34;101537.63;5045681;28;1202;-45
2022/10/11 10:22:46;;;;;;;;;;;;;;;29.27;26.10;101524.63;5048366;28;1100;-45
2022/10/11 10:25:19;;;;;;;;;;;;;;;29.27;25.93;101522.78;5040162;28;1191;-43
2022/10/11 10:27:54;;;;;;;;;;;;;;;28.89;24.21;101528.03;5058366;28;1116;-43
2022/10/11 10:30:19;;;;;;;;;;;;;;;28.63;24.24;101513.72;5075410;28;1104;-44
2022/10/11 10:32:45;;;;;;;;;;;;;;;28.34;24.04;101517.91;5050121;28;1187;-43
2022/10/11 10:35:30;;;;;;;;;;;;;;;28.51;24.29;101521.38;5057879;28;1971;-43
2022/10/11 10:37:58;;;;;;;;;;;;;;;28.85;23.75;101509.44;5040198;28;990;-45
2022/10/11 10:40:24;;;;;;;;;;;;;;;28.83;24.50;101507.91;5074161;28;1091;-42
2022/10/11 10:42:50;;;;;;;;;;;;;;;29.02;25.61;101520.22;5059438;28;997;-42
2022/10/11 10:45:16;;;;;;;;;;;;;;;28.71;24.06;101507.47;5044636;28;1227;-42
2022/10/11 10:48:00;;;;;;;;;;;;;;;28.81;24.25;101502.66;5068553;28;2674;-42
2022/10/11 10:50:26;;;;;;;;;;;;;;;28.76;24.82;101493.41;5061679;28;1527;-42
2022/10/11 10:53:00;;;;;;;;;;;;;;;28.89;23.84;101504.50;5041799;28;1128;-42
2022/10/11 10:55:42;;;;;;;;;;;;;;;28.81;23.91;101505.38;5076644;28;1974;-42
2022/10/11 10:58:22;;;;;;;;;;;;;;;28.90;23.72;101500.75;5048834;28;1133;-43
2022/10/11 11:00:48;;;;;;;;;;;;;;;28.77;25.26;101503.19;5056916;28;1080;-41
2022/10/11 11:03:25;;;;;;;;;;;;;;;28.96;23.73;101504.66;5071139;28;1185;-42
2022/10/11 11:05:53;;;;;;;;;;;;;;;29.01;24.35;101499.53;5046819;28;910;-41
2022/10/11 11:08:37;;;;;;;;;;;;;;;29.13;24.15;101496.44;5063582;28;1111;-43
2022/10/11 11:11:11;;;;;;;;;;;;;;;29.09;24.43;101490.53;5065227;28;1049;-43
2022/10/11 11:13:42;;;;;;;;;;;;;;;28.86;24.18;101485.91;5043881;28;1218;-44
2022/10/11 11:16:11;;;;;;;;;;;;;;;28.80;23.81;101489.28;5056771;28;1977;-42
2022/10/11 11:18:36;;;;;;;;;;;;;;;28.98;25.49;101472.81;5071848;28;2499;-42
2022/10/11 11:21:04;;;;;;;;;;;;;;;29.12;25.68;101475.78;5057090;28;1191;-43
2022/10/11 11:23:36;;;;;;;;;;;;;;;29.19;25.42;101488.47;5056730;28;1151;-41
2022/10/11 11:26:01;;;;;;;;;;;;;;;28.18;24.75;101478.16;5044781;28;1164;-44
2022/10/11 11:28:26;;;;;;;;;;;;;;;28.58;24.49;101467.41;5065053;28;1037;-43
2022/10/11 11:31:01;;;;;;;;;;;;;;;28.80;25.85;101473.91;5073502;28;1396;-42
2022/10/11 11:33:38;;;;;;;;;;;;;;;29.01;25.07;101479.75;5066153;28;1167;-41
2022/10/11 11:36:06;;;;;;;;;;;;;;;28.71;24.62;101469.56;5056929;28;1898;-46
2022/10/11 11:38:42;;;;;;;;;;;;;;;28.26;24.28;101470.00;5049476;28;1132;-47
2022/10/11 11:41:10;;;;;;;;;;;;;;;28.85;24.28;101476.94;5042210;28;1109;-39
2022/10/11 11:43:36;;;;;;;;;;;;;;;28.51;24.57;101474.53;5058568;28;1163;-40
2022/10/11 11:46:05;;;;;;;;;;;;;;;28.09;25.04;101474.63;5060168;28;988;-39
2022/10/11 11:48:30;;;;;;;;;;;;;;;28.01;25.13;101466.53;5064836;28;2523;-42
2022/10/11 11:50:59;;;;;;;;;;;;;;;28.20;24.77;101479.69;5075668;28;1135;-41
2022/10/11 11:53:31;;;;;;;;;;;;;;;27.61;25.56;101472.63;5038474;28;1097;-41
2022/10/11 11:55:58;;;;;;;;;;;;;;;27.25;26.40;101476.47;5056035;28;1993;-41
2022/10/11 11:58:26;;;;;;;;;;;;;;;26.63;27.13;101479.28;5070295;28;1155;-42
2022/10/11 12:01:01;;;;;;;;;;;;;;;26.21;28.11;101478.19;5055881;28;1147;-41
2022/10/11 12:03:29;;;;;;;;;;;;;;;26.46;27.67;101472.13;5055933;28;1128;-41
2022/10/11 12:06:12;;;;;;;;;;;;;;;26.51;27.52;101470.63;5062791;28;1293;-41
2022/10/11 12:08:38;;;;;;;;;;;;;;;26.21;28.04;101472.78;5073534;28;1198;-40
2022/10/11 12:11:03;;;;;;;;;;;;;;;26.16;28.02;101473.28;5038312;28;1125;-40
2022/10/11 12:13:33;;;;;;;;;;;;;;;26.26;28.24;101466.91;5037621;28;1127;-40
2022/10/11 12:15:58;;;;;;;;;;;;;;;25.79;28.92;101469.81;5076335;28;1976;-40
2022/10/11 12:18:24;;;;;;;;;;;;;;;25.46;29.59;101472.19;5058460;28;2644;-40
2022/10/11 12:20:59;;;;;;;;;;;;;;;25.53;29.27;101469.75;5037896;28;1263;-40
2022/10/11 12:23:27;;;;;;;;;;;;;;;25.31;29.59;101470.06;5056083;28;1199;-40
2022/10/11 12:26:11;;;;;;;;;;;;;;;25.47;29.86;101470.38;5060027;28;1123;-40
2022/10/11 12:28:40;;;;;;;;;;;;;;;25.33;29.89;101475.28;5063042;28;1028;-40
2022/10/11 12:31:15;;;;;;;;;;;;;;;25.39;29.77;101468.44;5060013;28;1355;-40
2022/10/11 12:33:40;;;;;;;;;;;;;;;25.64;29.71;101469.53;5038166;28;1101;-40
2022/10/11 12:36:32;;;;;;;;;;;;;;;25.50;29.76;101476.28;5055792;28;1906;-40
2022/10/11 12:39:16;;;;;;;;;;;;;;;25.54;30.00;101469.59;5053550;28;1183;-40
2022/10/11 12:41:52;;;;;;;;;;;;;;;25.44;29.79;101468.84;5069422;28;1166;-41
2022/10/11 12:44:17;;;;;;;;;;;;;;;24.97;30.27;101467.16;5073702;28;1143;-40
2022/10/11 12:46:48;;;;;;;;;;;;;;;25.07;30.12;101466.09;5055424;28;1864;-41
2022/10/11 12:49:14;;;;;;;;;;;;;;;25.34;29.96;101463.50;5055205;28;1109;-47